createdAt,value
2023-03-01T00:04:00.643Z,27.42
2023-03-01T00:08:22.642Z,27.75
2023-03-01T00:12:44.742Z,26.60
2023-03-01T00:17:07.014Z,29.67
2023-03-01T00:21:30.017Z,28.95
2023-03-01T00:25:52.541Z,28.27
2023-03-01T00:30:14.763Z,29.52
2023-03-01T00:34:37.064Z,27.50
2023-03-01T00:38:59.052Z,28.73
2023-03-01T00:43:22.187Z,29.45
2023-03-01T00:47:44.908Z,28.65
2023-03-01T00:52:06.966Z,28.02
2023-03-01T00:56:30.158Z,29.02
2023-03-01T01:00:53.723Z,27.23
2023-03-01T01:05:15.793Z,27.02
2023-03-01T01:09:37.929Z,26.98
2023-03-01T01:14:00.623Z,27.50
2023-03-01T01:18:24.705Z,28.00
2023-03-01T01:22:46.684Z,25.95
2023-03-01T01:27:08.545Z,26.35
2023-03-01T01:31:31.951Z,28.35
2023-03-01T01:35:53.996Z,26.05
2023-03-01T01:40:16.044Z,28.55
2023-03-01T01:44:38.215Z,26.33
2023-03-01T01:49:11.523Z,26.48
2023-03-01T01:53:33.624Z,27.73
2023-03-01T01:58:02.362Z,24.45
2023-03-01T02:02:24.958Z,25.08
2023-03-01T02:07:11.453Z,26.88
2023-03-01T02:11:34.843Z,29.08
2023-03-01T02:15:57.252Z,30.30
2023-03-01T02:20:45.050Z,26.40
2023-03-01T02:25:53.745Z,27.80
2023-03-01T02:30:16.285Z,27.95
2023-03-01T02:34:40.825Z,26.80
2023-03-01T02:39:07.109Z,28.95
2023-03-01T02:43:32.663Z,29.25
2023-03-01T02:47:58.808Z,30.25
2023-03-01T02:52:37.751Z,30.83
2023-03-01T02:57:00.327Z,28.40
2023-03-01T03:01:37.550Z,28.42
2023-03-01T03:06:01.073Z,30.38
2023-03-01T03:10:33.050Z,28.05
2023-03-01T03:14:55.378Z,29.73
2023-03-01T03:19:21.124Z,34.30
2023-03-01T03:23:43.409Z,28.30
2023-03-01T03:28:10.859Z,27.90
2023-03-01T03:32:33.085Z,31.07
2023-03-01T03:37:00.554Z,28.50
2023-03-01T03:41:22.664Z,30.00
2023-03-01T03:45:49.428Z,28.63
2023-03-01T03:50:13.626Z,28.00
2023-03-01T03:54:35.424Z,29.85
2023-03-01T03:58:57.684Z,29.70
2023-03-01T04:03:21.136Z,30.30
2023-03-01T04:07:44.049Z,49.92
2023-03-01T04:12:06.404Z,28.83
2023-03-01T04:16:29.016Z,27.27
2023-03-01T04:20:53.416Z,30.02
2023-03-01T04:25:15.722Z,35.10
2023-03-01T04:29:37.628Z,28.88
2023-03-01T04:33:59.763Z,27.07
2023-03-01T04:38:22.441Z,28.42
2023-03-01T04:42:44.626Z,28.33
2023-03-01T04:47:07.208Z,27.65
2023-03-01T04:51:29.427Z,29.33
2023-03-01T04:55:51.925Z,28.38
2023-03-01T05:00:22.371Z,29.75
2023-03-01T05:04:44.862Z,28.38
2023-03-01T05:09:07.865Z,27.90
2023-03-01T05:13:30.445Z,28.83
2023-03-01T05:17:53.665Z,29.17
2023-03-01T05:22:15.485Z,28.90
2023-03-01T05:26:41.670Z,29.80
2023-03-01T05:31:03.854Z,26.17
2023-03-01T05:35:25.993Z,27.85
2023-03-01T05:39:50.858Z,29.50
2023-03-01T05:44:13.348Z,31.40
2023-03-01T05:48:35.566Z,28.85
2023-03-01T05:53:03.454Z,32.42
2023-03-01T05:57:25.288Z,34.42
2023-03-01T06:01:47.656Z,26.95
2023-03-01T06:06:09.729Z,28.60
2023-03-01T06:10:32.274Z,28.50
2023-03-01T06:14:54.378Z,28.92
2023-03-01T06:19:16.558Z,25.88
2023-03-01T06:23:38.896Z,28.77
2023-03-01T06:28:01.085Z,35.05
2023-03-01T06:32:23.453Z,33.90
2023-03-01T06:36:45.748Z,36.60
2023-03-01T06:41:08.181Z,34.28
2023-03-01T06:45:30.315Z,30.13
2023-03-01T06:49:52.090Z,22.50
2023-03-01T06:54:15.109Z,19.42
2023-03-01T06:58:37.807Z,14.15
2023-03-01T07:03:03.149Z,14.45
2023-03-01T07:07:25.728Z,13.52
2023-03-01T07:11:48.148Z,14.43
2023-03-01T07:16:10.326Z,13.27
2023-03-01T07:20:32.241Z,13.77
2023-03-01T07:24:54.365Z,13.18
2023-03-01T07:29:16.733Z,12.88
2023-03-01T07:33:39.121Z,14.40
2023-03-01T07:38:00.981Z,12.45
2023-03-01T07:42:22.886Z,13.65
2023-03-01T07:46:45.550Z,13.30
2023-03-01T07:51:08.745Z,12.60
2023-03-01T07:55:30.807Z,13.10
2023-03-01T07:59:52.854Z,13.05
2023-03-01T08:04:15.164Z,14.60
2023-03-01T08:08:38.063Z,14.35
2023-03-01T08:13:00.237Z,13.70
2023-03-01T08:17:22.548Z,12.38
2023-03-01T08:21:44.778Z,13.10
2023-03-01T08:26:16.840Z,13.40
2023-03-01T08:30:38.938Z,13.80
2023-03-01T08:35:01.169Z,13.95
2023-03-01T08:39:23.724Z,14.40
2023-03-01T08:43:45.919Z,14.52
2023-03-01T08:48:08.141Z,14.40
2023-03-01T08:52:31.261Z,13.60
2023-03-01T08:56:53.391Z,14.18
2023-03-01T09:01:18.842Z,15.07
2023-03-01T09:05:40.934Z,14.98
2023-03-01T09:10:03.324Z,13.98
2023-03-01T09:14:25.336Z,14.70
2023-03-01T09:18:54.464Z,14.90
2023-03-01T09:23:16.607Z,14.20
2023-03-01T09:27:38.881Z,12.05
2023-03-01T09:32:01.770Z,13.90
2023-03-01T09:36:26.586Z,13.40
2023-03-01T09:40:49.192Z,14.25
2023-03-01T09:45:45.129Z,14.40
2023-03-01T09:50:18.789Z,13.82
2023-03-01T09:54:41.108Z,13.35
2023-03-01T09:59:51.429Z,13.38
2023-03-01T10:04:41.174Z,13.57
2023-03-01T10:09:23.642Z,14.65
2023-03-01T10:14:00.272Z,14.20
2023-03-01T10:18:29.994Z,13.98
2023-03-01T10:22:53.600Z,15.23
2023-03-01T10:27:25.847Z,14.60
2023-03-01T10:31:54.262Z,13.68
2023-03-01T10:36:16.310Z,14.93
2023-03-01T10:40:58.219Z,14.32
2023-03-01T10:45:38.642Z,15.77
2023-03-01T10:50:19.687Z,15.25
2023-03-01T10:54:42.711Z,16.35
2023-03-01T10:59:06.910Z,16.92
2023-03-01T11:03:34.708Z,16.17
2023-03-01T11:07:59.751Z,16.80
2023-03-01T11:12:22.597Z,15.52
2023-03-01T11:16:48.768Z,15.55
2023-03-01T11:21:11.687Z,16.17
2023-03-01T11:25:56.051Z,15.63
2023-03-01T11:30:34.527Z,15.60
2023-03-01T11:35:26.537Z,16.65
2023-03-01T11:40:33.966Z,16.52
2023-03-01T11:45:09.968Z,15.82
2023-03-01T11:49:53.747Z,16.55
2023-03-01T11:54:41.503Z,16.00
2023-03-01T11:59:18.504Z,16.73
2023-03-01T12:04:11.253Z,16.88
2023-03-01T12:09:08.458Z,17.80
2023-03-01T12:14:02.694Z,19.25
2023-03-01T12:19:00.047Z,18.25
2023-03-01T12:23:38.868Z,20.02
2023-03-01T12:28:28.544Z,19.23
2023-03-01T12:33:11.606Z,21.65
2023-03-01T12:37:52.569Z,21.80
2023-03-01T12:43:02.014Z,21.83
2023-03-01T12:47:41.848Z,24.65
2023-03-01T12:52:20.496Z,23.60
2023-03-01T12:56:53.754Z,21.08
2023-03-01T13:01:53.667Z,20.92
2023-03-01T13:06:47.932Z,21.42
2023-03-01T13:11:24.786Z,20.42
2023-03-01T13:15:48.963Z,21.02
2023-03-01T13:20:20.030Z,21.38
2023-03-01T13:24:43.713Z,20.73
2023-03-01T13:29:05.747Z,21.15
2023-03-01T13:33:41.005Z,21.13
2023-03-01T13:38:38.007Z,21.77
2023-03-01T13:43:35.873Z,19.08
2023-03-01T13:48:11.168Z,23.00
2023-03-01T13:52:45.044Z,19.92
2023-03-01T13:57:07.349Z,20.65
2023-03-01T14:01:37.642Z,20.63
2023-03-01T14:06:15.333Z,20.38
2023-03-01T14:11:26.432Z,20.10
2023-03-01T14:16:08.158Z,19.77
2023-03-01T14:20:41.246Z,17.70
2023-03-01T14:25:22.430Z,18.35
2023-03-01T14:29:45.473Z,20.08
2023-03-01T14:34:07.704Z,17.75
2023-03-01T14:38:45.681Z,19.17
2023-03-01T14:43:19.343Z,18.88
2023-03-01T14:47:43.453Z,17.98
2023-03-01T14:52:20.049Z,16.90
2023-03-01T14:56:48.432Z,27.23
2023-03-01T15:01:17.681Z,18.50
2023-03-01T15:05:41.956Z,18.42
2023-03-01T15:10:07.085Z,17.08
2023-03-01T15:14:52.253Z,16.92
2023-03-01T15:19:20.571Z,16.70
2023-03-01T15:23:42.896Z,15.40
2023-03-01T15:28:04.845Z,15.93
2023-03-01T15:32:34.514Z,16.75
2023-03-01T15:37:00.284Z,15.07
2023-03-01T15:41:47.502Z,15.63
2023-03-01T15:46:26.366Z,15.02
2023-03-01T15:50:58.775Z,15.57
2023-03-01T15:55:24.374Z,15.77
2023-03-01T15:59:46.484Z,16.42
2023-03-01T16:04:13.048Z,15.15
2023-03-01T16:08:35.134Z,16.77
2023-03-01T16:12:57.196Z,15.88
2023-03-01T16:17:19.428Z,15.65
2023-03-01T16:21:41.630Z,15.18
2023-03-01T16:26:03.731Z,15.18
2023-03-01T16:30:25.587Z,15.10
2023-03-01T16:34:50.455Z,15.23
2023-03-01T16:39:12.389Z,15.25
2023-03-01T16:43:34.300Z,15.07
2023-03-01T16:47:56.368Z,15.88
2023-03-01T16:52:18.280Z,16.08
2023-03-01T16:56:40.785Z,17.15
2023-03-01T17:01:07.028Z,16.88
2023-03-01T17:05:29.568Z,15.05
2023-03-01T17:09:51.728Z,16.10
2023-03-01T17:14:13.855Z,16.58
2023-03-01T17:18:36.248Z,16.55
2023-03-01T17:22:58.827Z,15.45
2023-03-01T17:27:20.906Z,15.23
2023-03-01T17:31:43.359Z,17.13
2023-03-01T17:36:06.247Z,17.63
2023-03-01T17:40:28.594Z,17.83
2023-03-01T17:44:51.043Z,17.02
2023-03-01T17:49:13.165Z,18.42
2023-03-01T17:53:37.462Z,17.73
2023-03-01T17:57:59.207Z,17.02
2023-03-01T18:02:21.936Z,16.42
2023-03-01T18:06:43.906Z,15.93
2023-03-01T18:11:06.048Z,17.40
2023-03-01T18:15:29.058Z,17.55
2023-03-01T18:19:51.673Z,17.92
2023-03-01T18:24:13.893Z,18.92
2023-03-01T18:28:37.586Z,18.98
2023-03-01T18:32:59.334Z,18.23
2023-03-01T18:37:21.387Z,18.75
2023-03-01T18:41:43.287Z,21.60
2023-03-01T18:46:05.754Z,19.50
2023-03-01T18:50:28.108Z,19.10
2023-03-01T18:54:49.992Z,18.50
2023-03-01T18:59:11.965Z,18.15
2023-03-01T19:03:38.147Z,20.77
2023-03-01T19:08:00.333Z,19.05
2023-03-01T19:12:22.545Z,22.02
2023-03-01T19:16:44.884Z,20.83
2023-03-01T19:21:08.974Z,19.77
2023-03-01T19:25:32.948Z,21.02
2023-03-01T19:29:54.904Z,21.25
2023-03-01T19:34:17.051Z,19.95
2023-03-01T19:38:40.942Z,20.17
2023-03-01T19:43:03.222Z,22.13
2023-03-01T19:47:25.322Z,19.98
2023-03-01T19:51:47.288Z,22.20
2023-03-01T19:56:10.269Z,22.27
2023-03-01T20:00:34.186Z,21.92
2023-03-01T20:04:57.297Z,23.40
2023-03-01T20:09:21.910Z,23.67
2023-03-01T20:13:44.783Z,26.73
2023-03-01T20:18:06.721Z,25.55
2023-03-01T20:22:28.843Z,26.35
2023-03-01T20:26:51.214Z,27.67
2023-03-01T20:31:16.268Z,24.23
2023-03-01T20:35:42.845Z,25.85
2023-03-01T20:40:06.000Z,26.75
2023-03-01T20:44:27.824Z,27.40
2023-03-01T20:48:53.944Z,26.58
2023-03-01T20:53:16.364Z,30.15
2023-03-01T20:57:38.303Z,30.63
2023-03-01T21:02:00.100Z,30.27
2023-03-01T21:06:22.463Z,30.38
2023-03-01T21:10:49.603Z,31.50
2023-03-01T21:15:23.500Z,31.65
2023-03-01T21:19:50.832Z,31.67
2023-03-01T21:24:13.247Z,30.17
2023-03-01T21:28:37.066Z,30.80
2023-03-01T21:32:59.228Z,29.75
2023-03-01T21:37:26.969Z,30.23
2023-03-01T21:41:50.710Z,30.42
2023-03-01T21:46:20.374Z,32.08
2023-03-01T21:50:42.211Z,30.70
2023-03-01T21:55:05.051Z,28.17
2023-03-01T21:59:28.512Z,29.60
2023-03-01T22:03:51.004Z,29.35
2023-03-01T22:08:13.126Z,31.35
2023-03-01T22:12:35.302Z,31.55
2023-03-01T22:16:57.696Z,30.42
2023-03-01T22:21:20.659Z,32.47
2023-03-01T22:25:43.021Z,30.38
2023-03-01T22:30:11.869Z,31.63
2023-03-01T22:34:35.229Z,32.97
2023-03-01T22:39:02.010Z,31.63
2023-03-01T22:43:23.950Z,33.13
2023-03-01T22:47:46.151Z,30.13
2023-03-01T22:52:08.490Z,32.00
2023-03-01T22:56:34.698Z,32.72
2023-03-01T23:00:56.603Z,31.25
2023-03-01T23:05:18.786Z,32.42
2023-03-01T23:09:40.926Z,31.00
2023-03-01T23:14:03.280Z,32.78
2023-03-01T23:18:25.564Z,28.45
2023-03-01T23:22:47.504Z,29.10
2023-03-01T23:27:10.010Z,28.85
2023-03-01T23:31:32.344Z,28.73
2023-03-01T23:35:54.744Z,28.80
2023-03-01T23:40:17.242Z,28.92
2023-03-01T23:44:40.962Z,26.05
2023-03-01T23:49:03.721Z,28.10
2023-03-01T23:53:26.743Z,26.27
2023-03-01T23:57:48.682Z,25.77
